Mayport Ns (Adm David L. Mcdonald Field) Airport Mayport US
ICAO: KNRB
IATA: NRB
Category: Medium
Scheduled Services: No

Elevation: 15 ft
TransAlt. 18000 ft.

Airport Communications:
JACKSONVILLE APP/DEP:124.9
ATIS:26.86
GND:126.5
PTD:30.85
TWR:118.75

KNRB Zoom In..

Runways:

(A) RW 05 length 8001 ft width 200 ft
---- / hdg 46

(B) RW 23 length 8001 ft width 200 ft
---- / hdg 226

Location; KNRB
Day. 22 / Time. 03.52 Zulu
* Altimeter: 30.20
* Temperature: 12° c. 53.6°f.
* Wind from: 070° Speed 05 kn.
Dewpoint: 11° c.
Visibility: 10 Statute Miles.
Clouds: Clear (automated report).

KNRB 220352Z AUTO 07005KT 10SM CLR 12/11 A3020 RMK AO2 SLP227 T01220111 $


Wind From 070°
Speed 05 kn.

jpsM music video
CHECK IT OUT

jpsM - It Moves..

 
jpsmedia.com for Web Design  worldairports.se 2018   terms of use